RKPK/PUS METAR and TAF weather

Enter ICAO airport designator
Station Type Date Time Source
RKPK METAR 2021/02/28 03:00 UTC NOAA

RKPK 280300Z 32004KT CAVOK 13/03 Q1027


Station Type Date Time Source
RKPK Decoded METAR 2021/02/28 03:00 UTC NOAA

Pusan / Kimhae International Airport, Korea, South (RKPK) 35-11N 128-56E 6M
Feb 27, 2021 - 10:00 PM EST / 2021.02.28 0300 UTC
Wind: from the NW (320 degrees) at 5 MPH (4 KT):0
Visibility: greater than 7 mile(s):0
Temperature: 55 F (13 C)
Dew Point: 37 F (3 C)
Relative Humidity: 50%
Pressure (altimeter): 30.33 in. Hg (1027 hPa)
ob: RKPK 280300Z 32004KT CAVOK 13/03 Q1027
cycle: 3

Station Type Date Time Source
RKPK TAF 2021/02/27 18:09 UTC NOAA

TAF RKPK 271700Z 2718/2824 03006KT 9999 SCT030 BKN200 TX14/2806Z TN06/2821Z
BECMG 2802/2803 12006KT
BECMG 2809/2810 BKN030 BKN100

Example: see airport list